sensor_id;sensor_type;location;lat;lon;timestamp;temperature;humidity
23114;DHT22;11726;50.122;8.832;2023-09-19T00:00:42;17.70;99.90
23114;DHT22;11726;50.122;8.832;2023-09-19T00:03:10;17.70;99.90
23114;DHT22;11726;50.122;8.832;2023-09-19T00:05:39;17.70;99.90
23114;DHT22;11726;50.122;8.832;2023-09-19T00:08:06;17.70;99.90
23114;DHT22;11726;50.122;8.832;2023-09-19T00:10:33;17.70;99.90
23114;DHT22;11726;50.122;8.832;2023-09-19T00:13:03;17.70;99.90
23114;DHT22;11726;50.122;8.832;2023-09-19T00:15:39;17.70;99.90
23114;DHT22;11726;50.122;8.832;2023-09-19T00:18:07;17.70;99.90
23114;DHT22;11726;50.122;8.832;2023-09-19T00:20:38;17.70;99.90
23114;DHT22;11726;50.122;8.832;2023-09-19T00:23:06;17.60;99.90
23114;DHT22;11726;50.122;8.832;2023-09-19T00:25:36;17.60;99.90
23114;DHT22;11726;50.122;8.832;2023-09-19T00:28:04;17.60;99.90
23114;DHT22;11726;50.122;8.832;2023-09-19T00:30:32;17.60;99.90
23114;DHT22;11726;50.122;8.832;2023-09-19T00:32:59;17.60;99.90
23114;DHT22;11726;50.122;8.832;2023-09-19T00:35:27;17.70;99.90
23114;DHT22;11726;50.122;8.832;2023-09-19T00:37:54;17.70;99.90
23114;DHT22;11726;50.122;8.832;2023-09-19T00:40:22;17.60;99.90
23114;DHT22;11726;50.122;8.832;2023-09-19T00:42:49;17.60;99.90
23114;DHT22;11726;50.122;8.832;2023-09-19T00:45:17;17.60;99.90
23114;DHT22;11726;50.122;8.832;2023-09-19T00:47:49;17.60;99.90
23114;DHT22;11726;50.122;8.832;2023-09-19T00:50:17;17.60;99.90
23114;DHT22;11726;50.122;8.832;2023-09-19T00:52:49;17.60;99.90
23114;DHT22;11726;50.122;8.832;2023-09-19T00:55:17;17.60;99.90
23114;DHT22;11726;50.122;8.832;2023-09-19T00:57:46;17.60;99.90
23114;DHT22;11726;50.122;8.832;2023-09-19T01:00:14;17.60;99.90
23114;DHT22;11726;50.122;8.832;2023-09-19T01:02:46;17.50;99.90
23114;DHT22;11726;50.122;8.832;2023-09-19T01:05:13;17.50;99.90
23114;DHT22;11726;50.122;8.832;2023-09-19T01:07:40;17.60;99.90
23114;DHT22;11726;50.122;8.832;2023-09-19T01:10:14;17.60;99.90
23114;DHT22;11726;50.122;8.832;2023-09-19T01:12:45;17.60;99.90
23114;DHT22;11726;50.122;8.832;2023-09-19T01:15:20;17.60;99.90
23114;DHT22;11726;50.122;8.832;2023-09-19T01:21:30;17.60;99.90
23114;DHT22;11726;50.122;8.832;2023-09-19T01:29:49;17.60;99.90
23114;DHT22;11726;50.122;8.832;2023-09-19T01:32:18;17.60;99.90
23114;DHT22;11726;50.122;8.832;2023-09-19T01:34:50;17.70;99.90
23114;DHT22;11726;50.122;8.832;2023-09-19T01:37:18;17.60;99.90
23114;DHT22;11726;50.122;8.832;2023-09-19T01:39:50;17.70;99.90
23114;DHT22;11726;50.122;8.832;2023-09-19T01:42:24;17.60;99.90
23114;DHT22;11726;50.122;8.832;2023-09-19T01:45:07;17.60;99.90
23114;DHT22;11726;50.122;8.832;2023-09-19T01:47:55;17.60;99.90
23114;DHT22;11726;50.122;8.832;2023-09-19T01:50:42;17.60;99.90
23114;DHT22;11726;50.122;8.832;2023-09-19T01:56:00;17.60;99.90
23114;DHT22;11726;50.122;8.832;2023-09-19T01:58:34;17.60;99.90
23114;DHT22;11726;50.122;8.832;2023-09-19T02:01:03;17.60;99.90
23114;DHT22;11726;50.122;8.832;2023-09-19T02:03:33;17.70;99.90
23114;DHT22;11726;50.122;8.832;2023-09-19T02:06:01;17.60;99.90
23114;DHT22;11726;50.122;8.832;2023-09-19T02:08:31;17.70;99.90
23114;DHT22;11726;50.122;8.832;2023-09-19T02:11:00;17.60;99.90
23114;DHT22;11726;50.122;8.832;2023-09-19T02:13:26;17.50;99.90
23114;DHT22;11726;50.122;8.832;2023-09-19T02:15:54;17.50;99.90
23114;DHT22;11726;50.122;8.832;2023-09-19T02:18:22;17.50;99.90
23114;DHT22;11726;50.122;8.832;2023-09-19T02:20:48;17.50;99.90
23114;DHT22;11726;50.122;8.832;2023-09-19T02:23:17;17.40;99.90
23114;DHT22;11726;50.122;8.832;2023-09-19T02:25:55;17.50;99.90
23114;DHT22;11726;50.122;8.832;2023-09-19T02:28:24;17.50;99.90
23114;DHT22;11726;50.122;8.832;2023-09-19T02:31:03;17.40;99.90
23114;DHT22;11726;50.122;8.832;2023-09-19T02:33:33;17.40;99.90
23114;DHT22;11726;50.122;8.832;2023-09-19T02:35:59;17.40;99.90
23114;DHT22;11726;50.122;8.832;2023-09-19T02:38:28;17.30;99.90
23114;DHT22;11726;50.122;8.832;2023-09-19T02:40:55;17.30;99.90
23114;DHT22;11726;50.122;8.832;2023-09-19T02:43:22;17.20;99.90
23114;DHT22;11726;50.122;8.832;2023-09-19T02:45:50;17.20;99.90
23114;DHT22;11726;50.122;8.832;2023-09-19T02:48:17;17.10;99.90
23114;DHT22;11726;50.122;8.832;2023-09-19T02:50:45;17.20;99.90
23114;DHT22;11726;50.122;8.832;2023-09-19T02:53:12;17.10;99.90
23114;DHT22;11726;50.122;8.832;2023-09-19T02:55:40;17.10;99.90
23114;DHT22;11726;50.122;8.832;2023-09-19T02:58:07;17.10;99.90
23114;DHT22;11726;50.122;8.832;2023-09-19T03:00:42;17.20;99.90
23114;DHT22;11726;50.122;8.832;2023-09-19T03:03:09;17.10;99.90
23114;DHT22;11726;50.122;8.832;2023-09-19T03:05:36;17.10;99.90
23114;DHT22;11726;50.122;8.832;2023-09-19T03:08:05;17.10;99.90
23114;DHT22;11726;50.122;8.832;2023-09-19T03:10:32;17.10;99.90
23114;DHT22;11726;50.122;8.832;2023-09-19T03:12:59;17.10;99.90
23114;DHT22;11726;50.122;8.832;2023-09-19T03:15:29;17.00;99.90
23114;DHT22;11726;50.122;8.832;2023-09-19T03:17:56;17.00;99.90
23114;DHT22;11726;50.122;8.832;2023-09-19T03:20:24;17.00;99.90
23114;DHT22;11726;50.122;8.832;2023-09-19T03:22:52;17.00;99.90
23114;DHT22;11726;50.122;8.832;2023-09-19T03:25:19;16.90;99.90
23114;DHT22;11726;50.122;8.832;2023-09-19T03:27:46;16.90;99.90
23114;DHT22;11726;50.122;8.832;2023-09-19T03:30:13;16.80;99.90
23114;DHT22;11726;50.122;8.832;2023-09-19T03:32:47;16.70;99.90
23114;DHT22;11726;50.122;8.832;2023-09-19T03:35:16;16.70;99.90
23114;DHT22;11726;50.122;8.832;2023-09-19T03:37:44;16.70;99.90
23114;DHT22;11726;50.122;8.832;2023-09-19T03:40:11;16.70;99.90
23114;DHT22;11726;50.122;8.832;2023-09-19T03:42:42;16.80;99.90
23114;DHT22;11726;50.122;8.832;2023-09-19T03:45:09;16.70;99.90
23114;DHT22;11726;50.122;8.832;2023-09-19T03:47:39;16.70;99.90
23114;DHT22;11726;50.122;8.832;2023-09-19T03:50:08;16.60;99.90
23114;DHT22;11726;50.122;8.832;2023-09-19T03:52:37;16.60;99.90
23114;DHT22;11726;50.122;8.832;2023-09-19T03:55:04;16.60;99.90
23114;DHT22;11726;50.122;8.832;2023-09-19T03:57:31;16.60;99.90
23114;DHT22;11726;50.122;8.832;2023-09-19T03:59:57;16.50;99.90
23114;DHT22;11726;50.122;8.832;2023-09-19T04:02:24;16.60;99.90
23114;DHT22;11726;50.122;8.832;2023-09-19T04:04:52;16.60;99.90
23114;DHT22;11726;50.122;8.832;2023-09-19T04:07:19;16.50;99.90
23114;DHT22;11726;50.122;8.832;2023-09-19T04:09:49;16.50;99.90
23114;DHT22;11726;50.122;8.832;2023-09-19T04:12:15;16.50;99.90
23114;DHT22;11726;50.122;8.832;2023-09-19T04:14:45;16.50;99.90
23114;DHT22;11726;50.122;8.832;2023-09-19T04:17:12;16.50;99.90
23114;DHT22;11726;50.122;8.832;2023-09-19T04:19:39;16.50;99.90
23114;DHT22;11726;50.122;8.832;2023-09-19T04:22:08;16.50;99.90
23114;DHT22;11726;50.122;8.832;2023-09-19T04:24:35;16.40;99.90
23114;DHT22;11726;50.122;8.832;2023-09-19T04:27:02;16.40;99.90
23114;DHT22;11726;50.122;8.832;2023-09-19T04:29:29;16.50;99.90
23114;DHT22;11726;50.122;8.832;2023-09-19T04:31:56;16.50;99.90
23114;DHT22;11726;50.122;8.832;2023-09-19T04:34:23;16.50;99.90
23114;DHT22;11726;50.122;8.832;2023-09-19T04:36:51;16.50;99.90
23114;DHT22;11726;50.122;8.832;2023-09-19T04:39:19;16.50;99.90
23114;DHT22;11726;50.122;8.832;2023-09-19T04:41:45;16.60;99.90
23114;DHT22;11726;50.122;8.832;2023-09-19T04:44:14;16.60;99.90
23114;DHT22;11726;50.122;8.832;2023-09-19T04:46:41;16.60;99.90
23114;DHT22;11726;50.122;8.832;2023-09-19T04:49:08;16.70;99.90
23114;DHT22;11726;50.122;8.832;2023-09-19T04:51:34;16.70;99.90
23114;DHT22;11726;50.122;8.832;2023-09-19T04:54:03;16.70;99.90
23114;DHT22;11726;50.122;8.832;2023-09-19T04:56:29;16.70;99.90
23114;DHT22;11726;50.122;8.832;2023-09-19T04:58:56;16.70;99.90
23114;DHT22;11726;50.122;8.832;2023-09-19T05:01:25;16.70;99.90
23114;DHT22;11726;50.122;8.832;2023-09-19T05:03:52;16.70;99.90
23114;DHT22;11726;50.122;8.832;2023-09-19T05:06:19;16.70;99.90
23114;DHT22;11726;50.122;8.832;2023-09-19T05:08:49;16.60;99.90
23114;DHT22;11726;50.122;8.832;2023-09-19T05:11:19;16.60;99.90
23114;DHT22;11726;50.122;8.832;2023-09-19T05:13:49;16.60;99.90
23114;DHT22;11726;50.122;8.832;2023-09-19T05:16:17;16.60;99.90
23114;DHT22;11726;50.122;8.832;2023-09-19T05:18:43;16.60;99.90
23114;DHT22;11726;50.122;8.832;2023-09-19T05:21:10;16.60;99.90
23114;DHT22;11726;50.122;8.832;2023-09-19T05:23:37;16.70;99.90
23114;DHT22;11726;50.122;8.832;2023-09-19T05:26:04;16.70;99.90
23114;DHT22;11726;50.122;8.832;2023-09-19T05:28:31;16.70;99.90
23114;DHT22;11726;50.122;8.832;2023-09-19T05:31:01;16.80;99.90
23114;DHT22;11726;50.122;8.832;2023-09-19T05:33:29;16.80;99.90
23114;DHT22;11726;50.122;8.832;2023-09-19T05:35:57;16.80;99.90
23114;DHT22;11726;50.122;8.832;2023-09-19T05:38:24;16.80;99.90
23114;DHT22;11726;50.122;8.832;2023-09-19T05:40:51;16.80;99.90
23114;DHT22;11726;50.122;8.832;2023-09-19T05:43:18;16.70;99.90
23114;DHT22;11726;50.122;8.832;2023-09-19T05:45:45;16.70;99.90
23114;DHT22;11726;50.122;8.832;2023-09-19T05:48:13;16.70;99.90
23114;DHT22;11726;50.122;8.832;2023-09-19T05:50:40;16.70;99.90
23114;DHT22;11726;50.122;8.832;2023-09-19T05:53:07;16.70;99.90
23114;DHT22;11726;50.122;8.832;2023-09-19T05:55:34;16.70;99.90
23114;DHT22;11726;50.122;8.832;2023-09-19T05:58:02;16.80;99.90
23114;DHT22;11726;50.122;8.832;2023-09-19T06:00:30;16.80;99.90
23114;DHT22;11726;50.122;8.832;2023-09-19T06:02:59;16.80;99.90
23114;DHT22;11726;50.122;8.832;2023-09-19T06:05:27;16.90;99.90
23114;DHT22;11726;50.122;8.832;2023-09-19T06:07:54;16.80;99.90
23114;DHT22;11726;50.122;8.832;2023-09-19T06:10:21;16.90;99.90
23114;DHT22;11726;50.122;8.832;2023-09-19T06:12:49;16.90;99.90
23114;DHT22;11726;50.122;8.832;2023-09-19T06:15:16;16.80;99.90
23114;DHT22;11726;50.122;8.832;2023-09-19T06:17:50;16.90;99.90
23114;DHT22;11726;50.122;8.832;2023-09-19T06:20:20;17.00;99.90
23114;DHT22;11726;50.122;8.832;2023-09-19T06:22:49;16.90;99.90
23114;DHT22;11726;50.122;8.832;2023-09-19T06:25:16;17.10;99.90
23114;DHT22;11726;50.122;8.832;2023-09-19T06:27:48;17.00;99.90
23114;DHT22;11726;50.122;8.832;2023-09-19T06:30:15;17.00;99.90
23114;DHT22;11726;50.122;8.832;2023-09-19T06:32:42;17.10;99.90
23114;DHT22;11726;50.122;8.832;2023-09-19T06:35:13;17.10;99.90
23114;DHT22;11726;50.122;8.832;2023-09-19T06:37:41;17.10;99.90
23114;DHT22;11726;50.122;8.832;2023-09-19T06:40:11;17.10;99.90
23114;DHT22;11726;50.122;8.832;2023-09-19T06:42:49;17.20;99.90
23114;DHT22;11726;50.122;8.832;2023-09-19T06:45:16;17.30;99.90
23114;DHT22;11726;50.122;8.832;2023-09-19T06:47:47;17.30;99.90
23114;DHT22;11726;50.122;8.832;2023-09-19T06:50:17;17.30;99.90
23114;DHT22;11726;50.122;8.832;2023-09-19T06:52:53;17.40;99.90
23114;DHT22;11726;50.122;8.832;2023-09-19T06:55:22;17.50;99.90
23114;DHT22;11726;50.122;8.832;2023-09-19T06:57:52;17.50;99.90
23114;DHT22;11726;50.122;8.832;2023-09-19T07:00:20;17.50;99.90
23114;DHT22;11726;50.122;8.832;2023-09-19T07:02:58;17.50;99.90
23114;DHT22;11726;50.122;8.832;2023-09-19T07:05:27;17.60;99.90
23114;DHT22;11726;50.122;8.832;2023-09-19T07:07:54;17.60;99.90
23114;DHT22;11726;50.122;8.832;2023-09-19T07:10:28;17.60;99.90
23114;DHT22;11726;50.122;8.832;2023-09-19T07:12:57;17.70;99.90
23114;DHT22;11726;50.122;8.832;2023-09-19T07:15:25;17.70;99.90
23114;DHT22;11726;50.122;8.832;2023-09-19T07:17:53;17.70;99.90
23114;DHT22;11726;50.122;8.832;2023-09-19T07:20:20;17.80;99.90
23114;DHT22;11726;50.122;8.832;2023-09-19T07:22:48;17.80;99.90
23114;DHT22;11726;50.122;8.832;2023-09-19T07:25:17;17.80;99.90
23114;DHT22;11726;50.122;8.832;2023-09-19T07:27:44;17.90;99.90
23114;DHT22;11726;50.122;8.832;2023-09-19T07:30:11;17.80;99.90
23114;DHT22;11726;50.122;8.832;2023-09-19T07:32:38;17.80;99.90
23114;DHT22;11726;50.122;8.832;2023-09-19T07:35:07;17.90;99.90
23114;DHT22;11726;50.122;8.832;2023-09-19T07:37:34;17.90;99.90
23114;DHT22;11726;50.122;8.832;2023-09-19T07:40:04;17.90;99.90
23114;DHT22;11726;50.122;8.832;2023-09-19T07:42:34;17.90;99.90
23114;DHT22;11726;50.122;8.832;2023-09-19T07:45:01;17.90;99.90
23114;DHT22;11726;50.122;8.832;2023-09-19T07:47:28;18.00;99.90
23114;DHT22;11726;50.122;8.832;2023-09-19T07:49:56;18.10;99.90
23114;DHT22;11726;50.122;8.832;2023-09-19T07:52:23;18.20;99.90
23114;DHT22;11726;50.122;8.832;2023-09-19T07:54:50;18.10;99.90
23114;DHT22;11726;50.122;8.832;2023-09-19T07:57:17;18.10;99.90
23114;DHT22;11726;50.122;8.832;2023-09-19T07:59:43;18.10;99.90
23114;DHT22;11726;50.122;8.832;2023-09-19T08:02:10;18.10;99.90
23114;DHT22;11726;50.122;8.832;2023-09-19T08:04:43;18.20;99.90
23114;DHT22;11726;50.122;8.832;2023-09-19T08:07:12;18.10;99.90
23114;DHT22;11726;50.122;8.832;2023-09-19T08:09:42;18.20;99.90
23114;DHT22;11726;50.122;8.832;2023-09-19T08:12:12;18.20;99.90
23114;DHT22;11726;50.122;8.832;2023-09-19T08:14:39;18.10;99.90
23114;DHT22;11726;50.122;8.832;2023-09-19T08:17:08;18.20;99.90
23114;DHT22;11726;50.122;8.832;2023-09-19T08:19:35;18.30;99.90
23114;DHT22;11726;50.122;8.832;2023-09-19T08:22:03;18.10;99.90
23114;DHT22;11726;50.122;8.832;2023-09-19T08:24:30;18.10;99.90
23114;DHT22;11726;50.122;8.832;2023-09-19T08:26:57;18.10;99.90
23114;DHT22;11726;50.122;8.832;2023-09-19T08:29:25;18.10;99.90
23114;DHT22;11726;50.122;8.832;2023-09-19T08:31:55;18.20;99.90
23114;DHT22;11726;50.122;8.832;2023-09-19T08:34:23;18.30;99.90
23114;DHT22;11726;50.122;8.832;2023-09-19T08:36:51;18.50;99.90
23114;DHT22;11726;50.122;8.832;2023-09-19T08:39:19;18.60;99.90
23114;DHT22;11726;50.122;8.832;2023-09-19T08:41:46;18.70;99.90
23114;DHT22;11726;50.122;8.832;2023-09-19T08:44:12;18.60;99.90
23114;DHT22;11726;50.122;8.832;2023-09-19T08:46:41;18.60;99.90
23114;DHT22;11726;50.122;8.832;2023-09-19T08:49:23;18.70;99.90
23114;DHT22;11726;50.122;8.832;2023-09-19T08:52:01;18.60;99.90
23114;DHT22;11726;50.122;8.832;2023-09-19T08:54:37;18.60;99.90
23114;DHT22;11726;50.122;8.832;2023-09-19T08:57:07;18.80;99.90
23114;DHT22;11726;50.122;8.832;2023-09-19T08:59:38;18.90;99.90
23114;DHT22;11726;50.122;8.832;2023-09-19T09:02:11;18.90;99.90
23114;DHT22;11726;50.122;8.832;2023-09-19T09:04:41;18.90;99.90
23114;DHT22;11726;50.122;8.832;2023-09-19T09:07:11;18.90;99.90
23114;DHT22;11726;50.122;8.832;2023-09-19T09:09:39;19.00;99.90
23114;DHT22;11726;50.122;8.832;2023-09-19T09:12:11;18.90;99.90
23114;DHT22;11726;50.122;8.832;2023-09-19T09:14:40;19.00;99.90
23114;DHT22;11726;50.122;8.832;2023-09-19T09:17:11;19.00;99.90
23114;DHT22;11726;50.122;8.832;2023-09-19T09:19:38;19.00;99.90
23114;DHT22;11726;50.122;8.832;2023-09-19T09:22:09;19.20;99.90
23114;DHT22;11726;50.122;8.832;2023-09-19T09:24:37;19.30;99.90
23114;DHT22;11726;50.122;8.832;2023-09-19T09:27:06;19.10;99.90
23114;DHT22;11726;50.122;8.832;2023-09-19T09:30:02;19.20;99.90
23114;DHT22;11726;50.122;8.832;2023-09-19T09:32:30;19.30;99.90
23114;DHT22;11726;50.122;8.832;2023-09-19T09:35:02;19.30;99.90
23114;DHT22;11726;50.122;8.832;2023-09-19T09:37:36;19.30;99.90
23114;DHT22;11726;50.122;8.832;2023-09-19T09:40:05;19.20;99.90
23114;DHT22;11726;50.122;8.832;2023-09-19T09:42:41;19.20;99.90
23114;DHT22;11726;50.122;8.832;2023-09-19T09:45:16;19.40;99.90
23114;DHT22;11726;50.122;8.832;2023-09-19T09:47:54;19.30;99.90
23114;DHT22;11726;50.122;8.832;2023-09-19T09:50:35;19.30;99.90
23114;DHT22;11726;50.122;8.832;2023-09-19T09:53:25;19.40;99.90
23114;DHT22;11726;50.122;8.832;2023-09-19T09:56:08;19.50;99.90
23114;DHT22;11726;50.122;8.832;2023-09-19T09:58:37;19.50;99.90
23114;DHT22;11726;50.122;8.832;2023-09-19T10:01:07;19.40;99.90
23114;DHT22;11726;50.122;8.832;2023-09-19T10:03:40;19.30;99.90
23114;DHT22;11726;50.122;8.832;2023-09-19T10:06:12;19.30;99.90
23114;DHT22;11726;50.122;8.832;2023-09-19T10:09:09;19.50;99.90
23114;DHT22;11726;50.122;8.832;2023-09-19T10:11:48;19.60;99.90
23114;DHT22;11726;50.122;8.832;2023-09-19T10:14:27;19.70;99.90
23114;DHT22;11726;50.122;8.832;2023-09-19T10:17:00;19.60;99.90
23114;DHT22;11726;50.122;8.832;2023-09-19T10:19:37;19.50;99.90
23114;DHT22;11726;50.122;8.832;2023-09-19T10:22:05;19.70;99.90
23114;DHT22;11726;50.122;8.832;2023-09-19T10:24:35;19.70;99.90
23114;DHT22;11726;50.122;8.832;2023-09-19T10:27:19;19.90;99.90
23114;DHT22;11726;50.122;8.832;2023-09-19T10:29:49;20.00;99.90
23114;DHT22;11726;50.122;8.832;2023-09-19T10:32:18;20.00;99.90
23114;DHT22;11726;50.122;8.832;2023-09-19T10:34:47;19.90;99.90
23114;DHT22;11726;50.122;8.832;2023-09-19T10:37:16;20.00;99.90
23114;DHT22;11726;50.122;8.832;2023-09-19T10:39:46;19.90;99.90
23114;DHT22;11726;50.122;8.832;2023-09-19T10:42:19;19.60;99.90
23114;DHT22;11726;50.122;8.832;2023-09-19T10:44:51;19.60;99.90
23114;DHT22;11726;50.122;8.832;2023-09-19T10:47:20;19.80;99.90
23114;DHT22;11726;50.122;8.832;2023-09-19T10:49:51;20.00;99.90
23114;DHT22;11726;50.122;8.832;2023-09-19T10:52:21;19.70;99.90
23114;DHT22;11726;50.122;8.832;2023-09-19T10:54:53;19.80;99.90
23114;DHT22;11726;50.122;8.832;2023-09-19T10:57:25;20.00;99.90
23114;DHT22;11726;50.122;8.832;2023-09-19T11:00:21;20.10;99.90
23114;DHT22;11726;50.122;8.832;2023-09-19T11:06:02;20.40;99.90
23114;DHT22;11726;50.122;8.832;2023-09-19T11:09:01;20.50;99.90
23114;DHT22;11726;50.122;8.832;2023-09-19T11:30:42;21.00;99.90
23114;DHT22;11726;50.122;8.832;2023-09-19T11:33:30;21.00;99.90
23114;DHT22;11726;50.122;8.832;2023-09-19T11:36:01;21.00;99.90
23114;DHT22;11726;50.122;8.832;2023-09-19T11:46:33;20.80;99.90
23114;DHT22;11726;50.122;8.832;2023-09-19T11:49:09;21.00;99.90
23114;DHT22;11726;50.122;8.832;2023-09-19T11:51:41;21.30;99.90
23114;DHT22;11726;50.122;8.832;2023-09-19T11:54:13;21.50;99.90
23114;DHT22;11726;50.122;8.832;2023-09-19T11:56:50;21.60;98.10
23114;DHT22;11726;50.122;8.832;2023-09-19T11:59:25;21.40;98.00
23114;DHT22;11726;50.122;8.832;2023-09-19T12:02:06;21.30;98.50
23114;DHT22;11726;50.122;8.832;2023-09-19T12:04:43;21.10;97.70
23114;DHT22;11726;50.122;8.832;2023-09-19T12:07:15;21.20;97.30
23114;DHT22;11726;50.122;8.832;2023-09-19T12:09:47;21.00;97.30
23114;DHT22;11726;50.122;8.832;2023-09-19T12:12:24;21.00;95.70
23114;DHT22;11726;50.122;8.832;2023-09-19T12:14:55;21.60;96.10
23114;DHT22;11726;50.122;8.832;2023-09-19T12:17:41;21.70;94.50
23114;DHT22;11726;50.122;8.832;2023-09-19T12:20:11;21.70;94.90
23114;DHT22;11726;50.122;8.832;2023-09-19T12:22:42;21.80;93.80
23114;DHT22;11726;50.122;8.832;2023-09-19T12:25:11;21.90;93.70
23114;DHT22;11726;50.122;8.832;2023-09-19T12:27:49;22.00;93.30
23114;DHT22;11726;50.122;8.832;2023-09-19T12:30:28;22.40;93.20
23114;DHT22;11726;50.122;8.832;2023-09-19T12:32:55;22.40;92.40
23114;DHT22;11726;50.122;8.832;2023-09-19T12:35:28;22.30;91.30
23114;DHT22;11726;50.122;8.832;2023-09-19T12:37:57;22.40;92.10
23114;DHT22;11726;50.122;8.832;2023-09-19T12:40:25;22.70;91.40
23114;DHT22;11726;50.122;8.832;2023-09-19T12:42:57;22.70;91.20
23114;DHT22;11726;50.122;8.832;2023-09-19T12:45:30;22.80;91.50
23114;DHT22;11726;50.122;8.832;2023-09-19T12:48:25;22.70;90.80
23114;DHT22;11726;50.122;8.832;2023-09-19T12:51:12;22.70;90.70
23114;DHT22;11726;50.122;8.832;2023-09-19T12:53:44;22.60;90.90
23114;DHT22;11726;50.122;8.832;2023-09-19T12:56:13;22.80;91.40
23114;DHT22;11726;50.122;8.832;2023-09-19T12:58:52;23.00;90.90
23114;DHT22;11726;50.122;8.832;2023-09-19T13:01:23;22.90;90.00
23114;DHT22;11726;50.122;8.832;2023-09-19T13:04:13;23.10;90.70
23114;DHT22;11726;50.122;8.832;2023-09-19T13:06:49;23.10;90.00
23114;DHT22;11726;50.122;8.832;2023-09-19T13:09:18;23.10;88.00
23114;DHT22;11726;50.122;8.832;2023-09-19T13:11:45;23.70;88.60
23114;DHT22;11726;50.122;8.832;2023-09-19T13:17:01;24.00;83.30
23114;DHT22;11726;50.122;8.832;2023-09-19T13:19:47;24.00;84.90
23114;DHT22;11726;50.122;8.832;2023-09-19T13:22:42;24.30;79.60
23114;DHT22;11726;50.122;8.832;2023-09-19T13:25:16;24.20;79.40
23114;DHT22;11726;50.122;8.832;2023-09-19T13:27:52;24.20;79.10
23114;DHT22;11726;50.122;8.832;2023-09-19T13:30:22;24.10;78.40
23114;DHT22;11726;50.122;8.832;2023-09-19T13:32:49;23.90;77.80
23114;DHT22;11726;50.122;8.832;2023-09-19T13:35:17;24.20;78.70
23114;DHT22;11726;50.122;8.832;2023-09-19T13:37:45;23.90;78.70
23114;DHT22;11726;50.122;8.832;2023-09-19T13:40:18;23.70;79.60
23114;DHT22;11726;50.122;8.832;2023-09-19T13:42:44;24.00;79.20
23114;DHT22;11726;50.122;8.832;2023-09-19T13:45:11;24.20;78.80
23114;DHT22;11726;50.122;8.832;2023-09-19T13:47:40;24.60;76.50
23114;DHT22;11726;50.122;8.832;2023-09-19T13:50:08;24.00;77.80
23114;DHT22;11726;50.122;8.832;2023-09-19T13:52:35;23.50;79.40
23114;DHT22;11726;50.122;8.832;2023-09-19T13:55:02;23.00;80.00
23114;DHT22;11726;50.122;8.832;2023-09-19T13:57:29;22.60;82.10
23114;DHT22;11726;50.122;8.832;2023-09-19T13:59:56;22.70;82.90
23114;DHT22;11726;50.122;8.832;2023-09-19T14:02:23;22.80;81.00
23114;DHT22;11726;50.122;8.832;2023-09-19T14:04:51;22.80;82.00
23114;DHT22;11726;50.122;8.832;2023-09-19T14:07:18;23.00;83.30
23114;DHT22;11726;50.122;8.832;2023-09-19T14:09:47;23.00;84.20
23114;DHT22;11726;50.122;8.832;2023-09-19T14:12:14;23.10;83.50
23114;DHT22;11726;50.122;8.832;2023-09-19T14:14:41;23.60;83.70
23114;DHT22;11726;50.122;8.832;2023-09-19T14:17:09;23.90;81.60
23114;DHT22;11726;50.122;8.832;2023-09-19T14:19:36;24.10;80.90
23114;DHT22;11726;50.122;8.832;2023-09-19T14:22:04;24.60;80.70
23114;DHT22;11726;50.122;8.832;2023-09-19T14:24:34;24.30;79.00
23114;DHT22;11726;50.122;8.832;2023-09-19T14:27:01;24.70;77.30
23114;DHT22;11726;50.122;8.832;2023-09-19T14:29:30;24.20;77.40
23114;DHT22;11726;50.122;8.832;2023-09-19T14:31:58;23.70;76.90
23114;DHT22;11726;50.122;8.832;2023-09-19T14:34:26;23.80;77.20
23114;DHT22;11726;50.122;8.832;2023-09-19T14:36:53;23.60;78.70
23114;DHT22;11726;50.122;8.832;2023-09-19T14:39:21;23.30;77.90
23114;DHT22;11726;50.122;8.832;2023-09-19T14:41:48;22.70;79.90
23114;DHT22;11726;50.122;8.832;2023-09-19T14:44:14;22.70;82.40
23114;DHT22;11726;50.122;8.832;2023-09-19T14:46:42;22.90;81.70
23114;DHT22;11726;50.122;8.832;2023-09-19T14:49:12;23.30;80.50
23114;DHT22;11726;50.122;8.832;2023-09-19T14:51:39;23.60;79.20
23114;DHT22;11726;50.122;8.832;2023-09-19T14:54:10;23.70;78.80
23114;DHT22;11726;50.122;8.832;2023-09-19T14:56:37;23.60;78.90
23114;DHT22;11726;50.122;8.832;2023-09-19T14:59:04;23.70;79.90
23114;DHT22;11726;50.122;8.832;2023-09-19T15:01:31;23.60;80.10
23114;DHT22;11726;50.122;8.832;2023-09-19T15:04:02;23.70;80.30
23114;DHT22;11726;50.122;8.832;2023-09-19T15:06:28;24.10;80.10
23114;DHT22;11726;50.122;8.832;2023-09-19T15:08:55;24.40;80.10
23114;DHT22;11726;50.122;8.832;2023-09-19T15:11:23;24.20;78.60
23114;DHT22;11726;50.122;8.832;2023-09-19T15:13:51;24.00;77.80
23114;DHT22;11726;50.122;8.832;2023-09-19T15:16:19;23.80;79.70
23114;DHT22;11726;50.122;8.832;2023-09-19T15:18:46;24.00;79.50
23114;DHT22;11726;50.122;8.832;2023-09-19T15:21:18;24.00;79.30
23114;DHT22;11726;50.122;8.832;2023-09-19T15:23:45;23.50;80.70
23114;DHT22;11726;50.122;8.832;2023-09-19T15:26:14;23.30;82.00
23114;DHT22;11726;50.122;8.832;2023-09-19T15:28:47;23.10;83.90
23114;DHT22;11726;50.122;8.832;2023-09-19T15:31:14;23.00;84.10
23114;DHT22;11726;50.122;8.832;2023-09-19T15:33:41;22.80;85.20
23114;DHT22;11726;50.122;8.832;2023-09-19T15:36:15;22.60;85.90
23114;DHT22;11726;50.122;8.832;2023-09-19T15:39:08;22.60;86.10
23114;DHT22;11726;50.122;8.832;2023-09-19T15:41:40;22.80;86.30
23114;DHT22;11726;50.122;8.832;2023-09-19T15:44:15;23.00;85.70
23114;DHT22;11726;50.122;8.832;2023-09-19T15:46:42;23.00;85.90
23114;DHT22;11726;50.122;8.832;2023-09-19T15:49:10;22.80;86.90
23114;DHT22;11726;50.122;8.832;2023-09-19T15:51:38;22.90;88.80
23114;DHT22;11726;50.122;8.832;2023-09-19T15:54:10;22.90;88.10
23114;DHT22;11726;50.122;8.832;2023-09-19T15:56:37;22.80;88.20
23114;DHT22;11726;50.122;8.832;2023-09-19T15:59:07;22.50;88.40
23114;DHT22;11726;50.122;8.832;2023-09-19T16:01:36;22.40;90.10
23114;DHT22;11726;50.122;8.832;2023-09-19T16:04:03;22.40;89.70
23114;DHT22;11726;50.122;8.832;2023-09-19T16:06:30;22.40;90.30
23114;DHT22;11726;50.122;8.832;2023-09-19T16:08:59;22.40;90.50
23114;DHT22;11726;50.122;8.832;2023-09-19T16:11:26;22.60;91.20
23114;DHT22;11726;50.122;8.832;2023-09-19T16:13:54;22.60;90.90
23114;DHT22;11726;50.122;8.832;2023-09-19T16:16:22;22.40;90.70
23114;DHT22;11726;50.122;8.832;2023-09-19T16:18:54;22.40;91.70
23114;DHT22;11726;50.122;8.832;2023-09-19T16:21:27;22.30;91.70
23114;DHT22;11726;50.122;8.832;2023-09-19T16:23:55;22.20;92.10
23114;DHT22;11726;50.122;8.832;2023-09-19T16:26:23;22.20;92.70
23114;DHT22;11726;50.122;8.832;2023-09-19T16:28:52;22.30;92.80
23114;DHT22;11726;50.122;8.832;2023-09-19T16:31:20;22.20;93.00
23114;DHT22;11726;50.122;8.832;2023-09-19T16:33:48;22.20;92.60